Hauptseite
METAR-TAF:

METAR-TAF

Flughäfen :

Militärflugplatz Piacenza

Piacenza, Italien

Breite: 44-55N, Länge: 009-44E, Höhe: 134 m

Beobachtung

Neuester Wetterbericht von vor 9 Stunden und 36 Minuten, um 17:55 UTC
Windstille
Temperatur 15°C
Luftfeuchtigkeit 100%
Luftdruck 1018 hPa
Sichtweite: 5000 m
Aufgelockert bewölkt in der Höhe von 4000 ft
feuchter Dunst

METAR: LIMS 151755Z 00000KT 5000 BR SCT040 15/15 Q1018 RMK BKN SCT200 VIS MIN 5000 WIND THR30 12001KT WHT

Zeit: 05:31 (03:31 UTC)


TAF: fehlend

Wetterbeobachtungen und Prognosen von mehr als 4000 Flughäfen (METAR und TAF Bericht).

Die verfügbaren Stationen werden durch gelbe und rote Markierungen auf der Karte dargestellt.

Führen Sie die Maus auf sie, um den Namen der Station zu sehen.

Darauf klicken, um die Beobachtung von Wetterbeobachtungen und Prognosen zu sehen.

Um die Karte zu ändern : klicken Sie auf den grünen Tasten mit einem schwarzen Kreuz Zum Vergrößern, auf den grünen Button mit einem Gedankenstrich zu verkleinern, oder auf die grünen Pfeile für benachbarte Karten.


METAR-TAF: